sensor_id;sensor_type;location;lat;lon;timestamp;P1;durP1;ratioP1;P2;durP2;ratioP2
19384;SDS011;9828;54.122;17.974;2022-07-17T00:02:16;4.77;;;1.50;;
19384;SDS011;9828;54.122;17.974;2022-07-17T00:07:38;2.87;;;1.30;;
19384;SDS011;9828;54.122;17.974;2022-07-17T00:12:59;4.30;;;1.33;;
19384;SDS011;9828;54.122;17.974;2022-07-17T00:18:21;1.70;;;1.20;;
19384;SDS011;9828;54.122;17.974;2022-07-17T00:23:42;3.47;;;1.47;;
19384;SDS011;9828;54.122;17.974;2022-07-17T00:29:04;3.63;;;1.27;;
19384;SDS011;9828;54.122;17.974;2022-07-17T00:34:25;2.87;;;1.27;;
19384;SDS011;9828;54.122;17.974;2022-07-17T00:39:48;7.33;;;1.73;;
19384;SDS011;9828;54.122;17.974;2022-07-17T00:45:10;2.67;;;1.43;;
19384;SDS011;9828;54.122;17.974;2022-07-17T00:50:34;6.03;;;1.50;;
19384;SDS011;9828;54.122;17.974;2022-07-17T00:55:57;2.97;;;1.20;;
19384;SDS011;9828;54.122;17.974;2022-07-17T01:01:21;5.23;;;1.17;;
19384;SDS011;9828;54.122;17.974;2022-07-17T01:06:43;2.90;;;1.33;;
19384;SDS011;9828;54.122;17.974;2022-07-17T01:12:05;3.03;;;1.10;;
19384;SDS011;9828;54.122;17.974;2022-07-17T01:17:30;3.63;;;1.40;;
19384;SDS011;9828;54.122;17.974;2022-07-17T01:22:51;2.93;;;1.23;;
19384;SDS011;9828;54.122;17.974;2022-07-17T01:28:13;3.20;;;1.00;;
19384;SDS011;9828;54.122;17.974;2022-07-17T01:33:35;2.47;;;0.83;;
19384;SDS011;9828;54.122;17.974;2022-07-17T01:38:56;2.20;;;0.80;;
19384;SDS011;9828;54.122;17.974;2022-07-17T01:44:18;5.73;;;1.10;;
19384;SDS011;9828;54.122;17.974;2022-07-17T01:49:42;3.60;;;1.13;;
19384;SDS011;9828;54.122;17.974;2022-07-17T01:55:06;1.20;;;0.80;;
19384;SDS011;9828;54.122;17.974;2022-07-17T02:00:29;2.93;;;0.93;;
19384;SDS011;9828;54.122;17.974;2022-07-17T02:05:50;2.97;;;0.93;;
19384;SDS011;9828;54.122;17.974;2022-07-17T02:11:12;2.17;;;0.97;;
19384;SDS011;9828;54.122;17.974;2022-07-17T02:16:34;1.10;;;0.83;;
19384;SDS011;9828;54.122;17.974;2022-07-17T02:21:55;5.53;;;0.90;;
19384;SDS011;9828;54.122;17.974;2022-07-17T02:27:16;2.97;;;0.90;;
19384;SDS011;9828;54.122;17.974;2022-07-17T02:32:39;1.50;;;0.60;;
19384;SDS011;9828;54.122;17.974;2022-07-17T02:38:01;4.20;;;1.23;;
19384;SDS011;9828;54.122;17.974;2022-07-17T02:43:22;2.23;;;0.80;;
19384;SDS011;9828;54.122;17.974;2022-07-17T02:48:44;3.07;;;1.00;;
19384;SDS011;9828;54.122;17.974;2022-07-17T02:54:06;6.07;;;1.70;;
19384;SDS011;9828;54.122;17.974;2022-07-17T02:59:28;2.23;;;0.93;;
19384;SDS011;9828;54.122;17.974;2022-07-17T03:04:50;2.10;;;0.90;;
19384;SDS011;9828;54.122;17.974;2022-07-17T03:10:12;2.87;;;0.77;;
19384;SDS011;9828;54.122;17.974;2022-07-17T03:15:35;1.40;;;0.77;;
19384;SDS011;9828;54.122;17.974;2022-07-17T03:20:56;4.80;;;1.10;;
19384;SDS011;9828;54.122;17.974;2022-07-17T03:26:18;2.87;;;1.37;;
19384;SDS011;9828;54.122;17.974;2022-07-17T03:31:39;1.07;;;0.60;;
19384;SDS011;9828;54.122;17.974;2022-07-17T03:37:03;2.83;;;0.90;;
19384;SDS011;9828;54.122;17.974;2022-07-17T03:42:25;2.63;;;1.03;;
19384;SDS011;9828;54.122;17.974;2022-07-17T03:47:47;2.50;;;0.80;;
19384;SDS011;9828;54.122;17.974;2022-07-17T03:53:08;2.03;;;0.83;;
19384;SDS011;9828;54.122;17.974;2022-07-17T03:58:29;4.23;;;0.90;;
19384;SDS011;9828;54.122;17.974;2022-07-17T04:03:51;5.90;;;1.23;;
19384;SDS011;9828;54.122;17.974;2022-07-17T04:16:07;2.87;;;0.90;;
19384;SDS011;9828;54.122;17.974;2022-07-17T04:21:29;3.53;;;1.13;;
19384;SDS011;9828;54.122;17.974;2022-07-17T04:26:51;3.90;;;0.90;;
19384;SDS011;9828;54.122;17.974;2022-07-17T04:32:12;1.70;;;0.80;;
19384;SDS011;9828;54.122;17.974;2022-07-17T04:37:33;2.70;;;1.00;;
19384;SDS011;9828;54.122;17.974;2022-07-17T04:42:55;2.93;;;1.30;;
19384;SDS011;9828;54.122;17.974;2022-07-17T04:48:16;2.07;;;1.40;;
19384;SDS011;9828;54.122;17.974;2022-07-17T04:53:39;1.50;;;1.33;;
19384;SDS011;9828;54.122;17.974;2022-07-17T04:59:00;2.37;;;1.20;;
19384;SDS011;9828;54.122;17.974;2022-07-17T05:04:22;4.90;;;1.33;;
19384;SDS011;9828;54.122;17.974;2022-07-17T05:09:47;1.92;;;0.90;;
19384;SDS011;9828;54.122;17.974;2022-07-17T05:15:09;2.43;;;1.10;;
19384;SDS011;9828;54.122;17.974;2022-07-17T05:20:30;3.37;;;1.33;;
19384;SDS011;9828;54.122;17.974;2022-07-17T05:25:51;2.78;;;1.25;;
19384;SDS011;9828;54.122;17.974;2022-07-17T05:31:13;3.70;;;0.93;;
19384;SDS011;9828;54.122;17.974;2022-07-17T05:36:34;2.97;;;1.00;;
19384;SDS011;9828;54.122;17.974;2022-07-17T05:41:56;4.03;;;1.17;;
19384;SDS011;9828;54.122;17.974;2022-07-17T05:47:17;4.13;;;1.35;;
19384;SDS011;9828;54.122;17.974;2022-07-17T05:52:38;5.07;;;1.00;;
19384;SDS011;9828;54.122;17.974;2022-07-17T05:58:00;3.58;;;0.93;;
19384;SDS011;9828;54.122;17.974;2022-07-17T06:03:21;2.58;;;1.08;;
19384;SDS011;9828;54.122;17.974;2022-07-17T06:08:43;2.83;;;0.80;;
19384;SDS011;9828;54.122;17.974;2022-07-17T06:14:04;4.18;;;0.85;;
19384;SDS011;9828;54.122;17.974;2022-07-17T06:19:26;8.68;;;1.80;;
19384;SDS011;9828;54.122;17.974;2022-07-17T06:24:47;6.45;;;1.25;;
19384;SDS011;9828;54.122;17.974;2022-07-17T06:30:11;4.38;;;1.00;;
19384;SDS011;9828;54.122;17.974;2022-07-17T06:35:34;4.82;;;1.48;;
19384;SDS011;9828;54.122;17.974;2022-07-17T06:40:56;4.82;;;1.38;;
19384;SDS011;9828;54.122;17.974;2022-07-17T06:46:17;1.88;;;0.75;;
19384;SDS011;9828;54.122;17.974;2022-07-17T06:51:39;3.80;;;0.80;;
19384;SDS011;9828;54.122;17.974;2022-07-17T06:57:01;2.08;;;0.82;;
19384;SDS011;9828;54.122;17.974;2022-07-17T07:02:22;2.00;;;0.75;;
19384;SDS011;9828;54.122;17.974;2022-07-17T07:07:44;5.72;;;1.00;;
19384;SDS011;9828;54.122;17.974;2022-07-17T07:13:05;6.78;;;1.35;;
19384;SDS011;9828;54.122;17.974;2022-07-17T07:18:27;5.32;;;1.13;;
19384;SDS011;9828;54.122;17.974;2022-07-17T07:23:49;2.00;;;1.00;;
19384;SDS011;9828;54.122;17.974;2022-07-17T07:29:11;2.28;;;0.75;;
19384;SDS011;9828;54.122;17.974;2022-07-17T07:34:36;3.03;;;0.90;;
19384;SDS011;9828;54.122;17.974;2022-07-17T07:39:57;2.75;;;0.85;;
19384;SDS011;9828;54.122;17.974;2022-07-17T07:45:19;2.47;;;0.82;;
19384;SDS011;9828;54.122;17.974;2022-07-17T07:50:41;2.22;;;1.00;;
19384;SDS011;9828;54.122;17.974;2022-07-17T07:56:03;3.85;;;1.10;;
19384;SDS011;9828;54.122;17.974;2022-07-17T08:01:25;2.58;;;0.93;;
19384;SDS011;9828;54.122;17.974;2022-07-17T08:06:46;4.07;;;1.20;;
19384;SDS011;9828;54.122;17.974;2022-07-17T08:12:08;4.50;;;1.02;;
19384;SDS011;9828;54.122;17.974;2022-07-17T08:17:34;2.40;;;0.85;;
19384;SDS011;9828;54.122;17.974;2022-07-17T08:22:56;3.20;;;1.20;;
19384;SDS011;9828;54.122;17.974;2022-07-17T08:28:25;3.97;;;1.38;;
19384;SDS011;9828;54.122;17.974;2022-07-17T08:33:46;4.90;;;1.00;;
19384;SDS011;9828;54.122;17.974;2022-07-17T08:44:28;4.78;;;1.25;;
19384;SDS011;9828;54.122;17.974;2022-07-17T08:49:50;2.63;;;0.60;;
19384;SDS011;9828;54.122;17.974;2022-07-17T08:55:12;2.95;;;1.13;;
19384;SDS011;9828;54.122;17.974;2022-07-17T09:00:34;3.85;;;1.00;;
19384;SDS011;9828;54.122;17.974;2022-07-17T09:05:56;4.78;;;1.50;;
19384;SDS011;9828;54.122;17.974;2022-07-17T09:11:17;3.20;;;1.00;;
19384;SDS011;9828;54.122;17.974;2022-07-17T09:16:49;3.10;;;1.00;;
19384;SDS011;9828;54.122;17.974;2022-07-17T09:22:18;3.72;;;1.30;;
19384;SDS011;9828;54.122;17.974;2022-07-17T09:27:46;5.10;;;1.38;;
19384;SDS011;9828;54.122;17.974;2022-07-17T09:33:10;3.22;;;0.98;;
19384;SDS011;9828;54.122;17.974;2022-07-17T09:38:37;6.55;;;1.13;;
19384;SDS011;9828;54.122;17.974;2022-07-17T09:44:00;5.55;;;1.50;;
19384;SDS011;9828;54.122;17.974;2022-07-17T09:49:23;4.93;;;1.17;;
19384;SDS011;9828;54.122;17.974;2022-07-17T09:54:48;3.25;;;1.15;;
19384;SDS011;9828;54.122;17.974;2022-07-17T10:00:23;4.65;;;1.45;;
19384;SDS011;9828;54.122;17.974;2022-07-17T10:05:44;4.07;;;0.90;;
19384;SDS011;9828;54.122;17.974;2022-07-17T10:11:07;4.20;;;1.20;;
19384;SDS011;9828;54.122;17.974;2022-07-17T10:16:31;9.73;;;1.20;;
19384;SDS011;9828;54.122;17.974;2022-07-17T10:21:57;6.07;;;1.80;;
19384;SDS011;9828;54.122;17.974;2022-07-17T10:27:26;1.90;;;0.82;;
19384;SDS011;9828;54.122;17.974;2022-07-17T10:32:51;2.28;;;0.95;;
19384;SDS011;9828;54.122;17.974;2022-07-17T10:38:19;2.60;;;0.77;;
19384;SDS011;9828;54.122;17.974;2022-07-17T10:43:43;5.55;;;0.93;;
19384;SDS011;9828;54.122;17.974;2022-07-17T10:49:07;2.70;;;1.05;;
19384;SDS011;9828;54.122;17.974;2022-07-17T10:54:34;4.05;;;1.10;;
19384;SDS011;9828;54.122;17.974;2022-07-17T10:59:56;3.53;;;1.27;;
19384;SDS011;9828;54.122;17.974;2022-07-17T11:05:18;6.50;;;1.45;;
19384;SDS011;9828;54.122;17.974;2022-07-17T11:10:40;2.28;;;1.00;;
19384;SDS011;9828;54.122;17.974;2022-07-17T11:16:01;6.47;;;1.17;;
19384;SDS011;9828;54.122;17.974;2022-07-17T11:21:23;2.25;;;0.90;;
19384;SDS011;9828;54.122;17.974;2022-07-17T11:26:44;1.58;;;0.85;;
19384;SDS011;9828;54.122;17.974;2022-07-17T11:32:09;4.40;;;1.02;;
19384;SDS011;9828;54.122;17.974;2022-07-17T11:37:31;4.63;;;1.00;;
19384;SDS011;9828;54.122;17.974;2022-07-17T11:42:59;0.82;;;0.75;;
19384;SDS011;9828;54.122;17.974;2022-07-17T11:48:21;4.70;;;1.10;;
19384;SDS011;9828;54.122;17.974;2022-07-17T11:53:42;5.68;;;1.20;;
19384;SDS011;9828;54.122;17.974;2022-07-17T11:59:04;3.45;;;1.13;;
19384;SDS011;9828;54.122;17.974;2022-07-17T12:04:26;3.92;;;1.20;;
19384;SDS011;9828;54.122;17.974;2022-07-17T12:09:48;2.58;;;1.10;;
19384;SDS011;9828;54.122;17.974;2022-07-17T12:15:10;2.60;;;1.25;;
19384;SDS011;9828;54.122;17.974;2022-07-17T12:20:44;5.05;;;1.23;;
19384;SDS011;9828;54.122;17.974;2022-07-17T12:26:12;3.13;;;0.88;;
19384;SDS011;9828;54.122;17.974;2022-07-17T12:31:37;4.35;;;1.40;;
19384;SDS011;9828;54.122;17.974;2022-07-17T12:36:59;2.88;;;1.08;;
19384;SDS011;9828;54.122;17.974;2022-07-17T12:42:20;3.38;;;1.20;;
19384;SDS011;9828;54.122;17.974;2022-07-17T12:47:41;2.20;;;1.08;;
19384;SDS011;9828;54.122;17.974;2022-07-17T12:59:02;3.78;;;1.15;;
19384;SDS011;9828;54.122;17.974;2022-07-17T13:04:24;2.38;;;0.93;;
19384;SDS011;9828;54.122;17.974;2022-07-17T13:21:27;4.10;;;1.25;;
19384;SDS011;9828;54.122;17.974;2022-07-17T13:27:07;2.38;;;0.90;;
19384;SDS011;9828;54.122;17.974;2022-07-17T13:32:29;3.08;;;0.68;;
19384;SDS011;9828;54.122;17.974;2022-07-17T13:37:51;4.13;;;0.80;;
19384;SDS011;9828;54.122;17.974;2022-07-17T13:43:13;4.47;;;1.00;;
19384;SDS011;9828;54.122;17.974;2022-07-17T13:48:34;3.28;;;0.93;;
19384;SDS011;9828;54.122;17.974;2022-07-17T13:54:21;3.10;;;0.88;;
19384;SDS011;9828;54.122;17.974;2022-07-17T13:59:43;3.28;;;0.80;;
19384;SDS011;9828;54.122;17.974;2022-07-17T14:05:05;2.22;;;0.93;;
19384;SDS011;9828;54.122;17.974;2022-07-17T14:10:28;5.70;;;1.00;;
19384;SDS011;9828;54.122;17.974;2022-07-17T14:15:50;2.25;;;0.90;;
19384;SDS011;9828;54.122;17.974;2022-07-17T14:21:11;3.45;;;1.10;;
19384;SDS011;9828;54.122;17.974;2022-07-17T14:26:33;2.63;;;1.10;;
19384;SDS011;9828;54.122;17.974;2022-07-17T14:31:56;5.60;;;1.08;;
19384;SDS011;9828;54.122;17.974;2022-07-17T14:37:18;5.97;;;1.23;;
19384;SDS011;9828;54.122;17.974;2022-07-17T14:42:40;1.55;;;0.95;;
19384;SDS011;9828;54.122;17.974;2022-07-17T14:48:01;1.73;;;0.90;;
19384;SDS011;9828;54.122;17.974;2022-07-17T14:53:23;3.95;;;1.58;;
19384;SDS011;9828;54.122;17.974;2022-07-17T14:58:46;3.15;;;0.95;;
19384;SDS011;9828;54.122;17.974;2022-07-17T15:04:07;2.75;;;1.10;;
19384;SDS011;9828;54.122;17.974;2022-07-17T15:09:29;2.83;;;0.90;;
19384;SDS011;9828;54.122;17.974;2022-07-17T15:14:51;3.80;;;1.00;;
19384;SDS011;9828;54.122;17.974;2022-07-17T15:20:12;2.50;;;1.10;;
19384;SDS011;9828;54.122;17.974;2022-07-17T15:25:34;4.90;;;1.15;;
19384;SDS011;9828;54.122;17.974;2022-07-17T15:30:55;4.57;;;1.15;;
19384;SDS011;9828;54.122;17.974;2022-07-17T15:36:17;1.17;;;0.85;;
19384;SDS011;9828;54.122;17.974;2022-07-17T15:41:45;1.83;;;0.77;;
19384;SDS011;9828;54.122;17.974;2022-07-17T15:47:07;2.63;;;0.80;;
19384;SDS011;9828;54.122;17.974;2022-07-17T15:52:28;4.65;;;1.30;;
19384;SDS011;9828;54.122;17.974;2022-07-17T15:57:49;3.15;;;1.00;;
19384;SDS011;9828;54.122;17.974;2022-07-17T16:03:11;4.07;;;1.38;;
19384;SDS011;9828;54.122;17.974;2022-07-17T16:08:32;2.50;;;1.13;;
19384;SDS011;9828;54.122;17.974;2022-07-17T16:13:54;3.40;;;1.42;;
19384;SDS011;9828;54.122;17.974;2022-07-17T16:19:15;5.07;;;1.38;;
19384;SDS011;9828;54.122;17.974;2022-07-17T16:24:37;5.90;;;1.50;;
19384;SDS011;9828;54.122;17.974;2022-07-17T16:29:58;6.18;;;1.27;;
19384;SDS011;9828;54.122;17.974;2022-07-17T16:35:20;3.83;;;1.40;;
19384;SDS011;9828;54.122;17.974;2022-07-17T16:40:41;3.22;;;0.93;;
19384;SDS011;9828;54.122;17.974;2022-07-17T16:46:03;3.63;;;1.67;;
19384;SDS011;9828;54.122;17.974;2022-07-17T16:51:25;4.43;;;1.85;;
19384;SDS011;9828;54.122;17.974;2022-07-17T16:56:47;11.45;;;1.55;;
19384;SDS011;9828;54.122;17.974;2022-07-17T17:02:08;7.50;;;1.77;;
19384;SDS011;9828;54.122;17.974;2022-07-17T17:07:30;3.75;;;1.48;;
19384;SDS011;9828;54.122;17.974;2022-07-17T17:12:51;10.50;;;1.65;;
19384;SDS011;9828;54.122;17.974;2022-07-17T17:18:12;2.38;;;1.15;;
19384;SDS011;9828;54.122;17.974;2022-07-17T17:23:34;3.70;;;1.50;;
19384;SDS011;9828;54.122;17.974;2022-07-17T17:28:55;5.80;;;1.50;;
19384;SDS011;9828;54.122;17.974;2022-07-17T17:34:17;6.10;;;2.03;;
19384;SDS011;9828;54.122;17.974;2022-07-17T17:39:38;4.15;;;1.38;;
19384;SDS011;9828;54.122;17.974;2022-07-17T17:45:00;4.65;;;1.45;;
19384;SDS011;9828;54.122;17.974;2022-07-17T17:50:22;5.60;;;1.85;;
19384;SDS011;9828;54.122;17.974;2022-07-17T17:55:44;4.25;;;1.67;;
19384;SDS011;9828;54.122;17.974;2022-07-17T18:01:05;4.75;;;1.40;;
19384;SDS011;9828;54.122;17.974;2022-07-17T18:06:27;3.45;;;1.90;;
19384;SDS011;9828;54.122;17.974;2022-07-17T18:11:52;4.63;;;1.67;;
19384;SDS011;9828;54.122;17.974;2022-07-17T18:17:13;6.53;;;1.70;;
19384;SDS011;9828;54.122;17.974;2022-07-17T18:22:35;6.22;;;1.85;;
19384;SDS011;9828;54.122;17.974;2022-07-17T18:27:56;7.75;;;1.60;;
19384;SDS011;9828;54.122;17.974;2022-07-17T18:33:18;3.88;;;1.70;;
19384;SDS011;9828;54.122;17.974;2022-07-17T18:38:39;6.20;;;1.70;;
19384;SDS011;9828;54.122;17.974;2022-07-17T18:44:01;4.30;;;1.55;;
19384;SDS011;9828;54.122;17.974;2022-07-17T18:49:22;7.18;;;2.03;;
19384;SDS011;9828;54.122;17.974;2022-07-17T18:54:44;4.93;;;1.65;;
19384;SDS011;9828;54.122;17.974;2022-07-17T19:00:06;4.82;;;1.80;;
19384;SDS011;9828;54.122;17.974;2022-07-17T19:05:28;4.22;;;1.55;;
19384;SDS011;9828;54.122;17.974;2022-07-17T19:10:52;5.13;;;1.50;;
19384;SDS011;9828;54.122;17.974;2022-07-17T19:16:13;4.70;;;1.95;;
19384;SDS011;9828;54.122;17.974;2022-07-17T19:21:35;3.30;;;1.50;;
19384;SDS011;9828;54.122;17.974;2022-07-17T19:26:56;2.63;;;1.50;;
19384;SDS011;9828;54.122;17.974;2022-07-17T19:32:18;3.60;;;1.23;;
19384;SDS011;9828;54.122;17.974;2022-07-17T19:37:39;6.05;;;1.50;;
19384;SDS011;9828;54.122;17.974;2022-07-17T19:43:00;2.92;;;1.27;;
19384;SDS011;9828;54.122;17.974;2022-07-17T19:48:22;3.65;;;1.65;;
19384;SDS011;9828;54.122;17.974;2022-07-17T19:53:43;4.05;;;1.42;;
19384;SDS011;9828;54.122;17.974;2022-07-17T19:59:05;7.50;;;3.17;;
19384;SDS011;9828;54.122;17.974;2022-07-17T20:04:30;8.80;;;4.38;;
19384;SDS011;9828;54.122;17.974;2022-07-17T20:09:52;12.05;;;4.82;;
19384;SDS011;9828;54.122;17.974;2022-07-17T20:15:14;15.20;;;4.10;;
19384;SDS011;9828;54.122;17.974;2022-07-17T20:20:36;6.97;;;3.83;;
19384;SDS011;9828;54.122;17.974;2022-07-17T20:25:57;4.78;;;2.72;;
19384;SDS011;9828;54.122;17.974;2022-07-17T20:31:19;6.97;;;2.50;;
19384;SDS011;9828;54.122;17.974;2022-07-17T20:36:40;12.48;;;4.47;;
19384;SDS011;9828;54.122;17.974;2022-07-17T20:42:09;15.95;;;5.70;;
19384;SDS011;9828;54.122;17.974;2022-07-17T20:47:31;12.73;;;4.28;;
19384;SDS011;9828;54.122;17.974;2022-07-17T20:52:52;13.88;;;5.68;;
19384;SDS011;9828;54.122;17.974;2022-07-17T20:58:14;20.00;;;11.80;;
19384;SDS011;9828;54.122;17.974;2022-07-17T21:03:37;15.85;;;6.85;;
19384;SDS011;9828;54.122;17.974;2022-07-17T21:08:59;11.60;;;4.85;;
19384;SDS011;9828;54.122;17.974;2022-07-17T21:14:20;9.55;;;4.22;;
19384;SDS011;9828;54.122;17.974;2022-07-17T21:19:42;12.00;;;4.65;;
19384;SDS011;9828;54.122;17.974;2022-07-17T21:25:04;5.03;;;2.75;;
19384;SDS011;9828;54.122;17.974;2022-07-17T21:30:26;4.93;;;2.47;;
19384;SDS011;9828;54.122;17.974;2022-07-17T21:35:48;4.78;;;3.47;;
19384;SDS011;9828;54.122;17.974;2022-07-17T21:41:09;5.28;;;3.03;;
19384;SDS011;9828;54.122;17.974;2022-07-17T21:46:31;5.38;;;3.10;;
19384;SDS011;9828;54.122;17.974;2022-07-17T21:51:53;9.40;;;3.40;;
19384;SDS011;9828;54.122;17.974;2022-07-17T21:57:14;7.82;;;3.33;;
19384;SDS011;9828;54.122;17.974;2022-07-17T22:02:36;6.93;;;2.95;;
19384;SDS011;9828;54.122;17.974;2022-07-17T22:07:58;5.90;;;2.22;;
19384;SDS011;9828;54.122;17.974;2022-07-17T22:13:20;5.18;;;2.60;;
19384;SDS011;9828;54.122;17.974;2022-07-17T22:24:42;5.25;;;2.30;;
19384;SDS011;9828;54.122;17.974;2022-07-17T22:30:29;4.25;;;2.17;;
19384;SDS011;9828;54.122;17.974;2022-07-17T22:42:45;3.42;;;1.90;;
19384;SDS011;9828;54.122;17.974;2022-07-17T22:48:06;3.53;;;1.95;;
19384;SDS011;9828;54.122;17.974;2022-07-17T22:53:28;3.00;;;1.80;;
19384;SDS011;9828;54.122;17.974;2022-07-17T22:58:49;3.10;;;1.63;;
19384;SDS011;9828;54.122;17.974;2022-07-17T23:04:11;4.00;;;1.60;;
19384;SDS011;9828;54.122;17.974;2022-07-17T23:09:32;5.28;;;2.40;;
19384;SDS011;9828;54.122;17.974;2022-07-17T23:14:54;4.10;;;1.70;;
19384;SDS011;9828;54.122;17.974;2022-07-17T23:20:15;4.95;;;1.52;;
19384;SDS011;9828;54.122;17.974;2022-07-17T23:25:36;4.18;;;2.10;;
19384;SDS011;9828;54.122;17.974;2022-07-17T23:30:58;5.60;;;2.50;;
19384;SDS011;9828;54.122;17.974;2022-07-17T23:36:19;6.97;;;1.98;;
19384;SDS011;9828;54.122;17.974;2022-07-17T23:41:41;5.57;;;2.03;;
19384;SDS011;9828;54.122;17.974;2022-07-17T23:47:03;2.88;;;1.75;;
19384;SDS011;9828;54.122;17.974;2022-07-17T23:52:25;2.95;;;1.45;;
19384;SDS011;9828;54.122;17.974;2022-07-17T23:57:46;6.35;;;2.13;;
